Auckley, United Kingdom
Current Conditions -  °F | °C
As of 11:50 PM on Sunday 25 Jan 2015 (Local Time) from EGCN Reporting Station
Broken Clouds Broken Clouds  
Wind Chill: 45°   Ceiling: 3600
Heat Index: 48°   Visibility: 6mi
Dew Point: 45°   Wind: 8mph
Humidity: 87%   Direction: 170°S
Pressure: 30.15"   Gusts: NA
Location:  53.5°N, 1.02°W
Report Text: EGCN 252350Z 17007KT 9999 SCT018 BKN036 09/07 Q1021
Loading
Personal Weather Stations






























Interactive Weather Map New forecast layout! Learn more

10-Day Weather Forecast

Advertisements
Track Severe Weather on mobile